Time;durP1;ratioP1;P1;durP2;ratioP2;P2;SDS_P1;SDS_P2;PMS_P1;PMS_P2;Temp;Humidity;BMP_temperature;BMP_pressure;BME280_temperature;BME280_humidity;BME280_pressure;Samples;Min_cycle;Max_cycle;Signal;HPM_P1;HPM_P2
2024/03/28 00:00:30;;;;;;;0.20;0.20;;;;;;;;;;5024402;28;20596;-76
2024/03/28 00:02:56;;;;;;;0.38;0.38;;;;;;;;;;5024818;28;20053;-79
2024/03/28 00:05:21;;;;;;;2.10;2.00;;;;;;;;;;5023262;28;20110;-78
2024/03/28 00:07:47;;;;;;;1.48;1.48;;;;;;;;;;5020661;28;20065;-78
2024/03/28 00:10:12;;;;;;;0.30;0.30;;;;;;;;;;5018574;28;20119;-78
2024/03/28 00:12:37;;;;;;;0.35;0.35;;;;;;;;;;5024626;28;20041;-78
2024/03/28 00:15:03;;;;;;;0.40;0.40;;;;;;;;;;5023619;28;20095;-79
2024/03/28 00:17:32;;;;;;;8.13;7.78;;;;;;;;;;5027180;28;20045;-78
2024/03/28 00:19:58;;;;;;;0.22;0.22;;;;;;;;;;5023976;28;20048;-79
2024/03/28 00:22:23;;;;;;;0.20;0.20;;;;;;;;;;5024982;28;20401;-77
2024/03/28 00:24:48;;;;;;;0.40;0.40;;;;;;;;;;5031724;28;20513;-79
2024/03/28 00:27:14;;;;;;;2.00;1.90;;;;;;;;;;5032621;28;20113;-77
2024/03/28 00:29:46;;;;;;;0.50;0.50;;;;;;;;;;5028834;28;20116;-78
2024/03/28 00:32:12;;;;;;;0.30;0.30;;;;;;;;;;5028794;28;20255;-78
2024/03/28 00:34:37;;;;;;;0.43;0.43;;;;;;;;;;5021208;28;20124;-77
2024/03/28 00:37:02;;;;;;;0.30;0.30;;;;;;;;;;5021942;28;20111;-77
2024/03/28 00:39:28;;;;;;;3.20;2.20;;;;;;;;;;5022353;28;20041;-76
2024/03/28 00:41:53;;;;;;;0.30;0.30;;;;;;;;;;5006750;28;20995;-75
2024/03/28 00:44:18;;;;;;;0.30;0.30;;;;;;;;;;5022216;28;20025;-75
2024/03/28 00:46:44;;;;;;;0.40;0.40;;;;;;;;;;5021121;28;20053;-79
2024/03/28 00:49:09;;;;;;;0.20;0.20;;;;;;;;;;5023693;28;20067;-78
2024/03/28 00:51:35;;;;;;;0.35;0.35;;;;;;;;;;5023686;28;20042;-77
2024/03/28 00:54:00;;;;;;;1.65;1.55;;;;;;;;;;4998368;28;20053;-79
2024/03/28 00:56:25;;;;;;;1.58;1.50;;;;;;;;;;5003876;28;20013;-80
2024/03/28 00:58:51;;;;;;;0.30;0.30;;;;;;;;;;5018877;28;20048;-77
2024/03/28 01:01:16;;;;;;;1.40;1.30;;;;;;;;;;5022000;28;20045;-77
2024/03/28 01:03:41;;;;;;;1.48;1.40;;;;;;;;;;5021411;28;20077;-80
2024/03/28 01:06:07;;;;;;;0.30;0.30;;;;;;;;;;5021941;28;20921;-78
2024/03/28 01:08:32;;;;;;;0.35;0.35;;;;;;;;;;5025176;28;20026;-78
2024/03/28 01:10:57;;;;;;;1.15;1.15;;;;;;;;;;5020436;28;20041;-78
2024/03/28 01:13:23;;;;;;;0.35;0.35;;;;;;;;;;5007012;28;20045;-78
2024/03/28 01:15:48;;;;;;;0.40;0.40;;;;;;;;;;5022822;28;21481;-80
2024/03/28 01:18:13;;;;;;;0.30;0.30;;;;;;;;;;5027883;28;20052;-78
2024/03/28 01:20:39;;;;;;;1.05;1.05;;;;;;;;;;5027793;28;20493;-78
2024/03/28 01:23:04;;;;;;;0.30;0.30;;;;;;;;;;5023575;28;20017;-78
2024/03/28 01:25:30;;;;;;;0.68;0.68;;;;;;;;;;5020784;28;20123;-78
2024/03/28 01:27:55;;;;;;;0.30;0.30;;;;;;;;;;5024599;28;20409;-79
2024/03/28 01:30:20;;;;;;;0.50;0.50;;;;;;;;;;5023960;28;20383;-79
2024/03/28 01:32:46;;;;;;;13.55;7.53;;;;;;;;;;5005676;28;20103;-79
2024/03/28 01:35:11;;;;;;;0.22;0.22;;;;;;;;;;5018654;28;20393;-78
2024/03/28 01:37:37;;;;;;;4.47;4.22;;;;;;;;;;5008458;28;20140;-79
2024/03/28 01:40:03;;;;;;;0.68;0.68;;;;;;;;;;5021970;28;20906;-78
2024/03/28 01:42:28;;;;;;;0.30;0.30;;;;;;;;;;5023167;28;20147;-79
2024/03/28 01:44:54;;;;;;;9.38;8.75;;;;;;;;;;5024497;28;20116;-79
2024/03/28 01:47:20;;;;;;;0.30;0.30;;;;;;;;;;5026172;28;20021;-79
2024/03/28 01:49:45;;;;;;;0.30;0.30;;;;;;;;;;5024634;28;20037;-78
2024/03/28 01:52:11;;;;;;;0.30;0.30;;;;;;;;;;5024291;28;20054;-77
2024/03/28 01:54:38;;;;;;;0.40;0.40;;;;;;;;;;5024231;28;20033;-79
2024/03/28 01:57:04;;;;;;;0.73;0.65;;;;;;;;;;5022532;28;20080;-78
2024/03/28 01:59:30;;;;;;;0.30;0.30;;;;;;;;;;5027122;28;20017;-78
2024/03/28 02:01:57;;;;;;;0.30;0.30;;;;;;;;;;5021761;28;20041;-78
2024/03/28 02:04:22;;;;;;;0.20;0.20;;;;;;;;;;5023417;28;20136;-78
2024/03/28 02:06:47;;;;;;;0.20;0.20;;;;;;;;;;5006550;28;20129;-80
2024/03/28 02:09:13;;;;;;;0.30;0.30;;;;;;;;;;5022797;28;20053;-78
2024/03/28 02:11:38;;;;;;;2.45;2.25;;;;;;;;;;5025866;28;20391;-78
2024/03/28 02:14:04;;;;;;;0.30;0.30;;;;;;;;;;5023665;28;20056;-76
2024/03/28 02:16:35;;;;;;;0.30;0.30;;;;;;;;;;5003582;28;20048;-77
2024/03/28 02:19:01;;;;;;;0.65;0.65;;;;;;;;;;5019841;28;20091;-75
2024/03/28 02:21:26;;;;;;;0.32;0.32;;;;;;;;;;5019773;28;20041;-76
2024/03/28 02:23:53;;;;;;;0.65;0.65;;;;;;;;;;5022270;28;20417;-78
2024/03/28 02:26:19;;;;;;;0.30;0.30;;;;;;;;;;5025508;28;20112;-76
2024/03/28 02:28:44;;;;;;;0.30;0.30;;;;;;;;;;5022640;28;21007;-78
2024/03/28 02:31:09;;;;;;;1.27;0.85;;;;;;;;;;5025079;28;20445;-78
2024/03/28 02:33:38;;;;;;;0.20;0.20;;;;;;;;;;5023109;28;20049;-77
2024/03/28 02:36:03;;;;;;;0.65;0.65;;;;;;;;;;5023696;28;20061;-77
2024/03/28 02:38:30;;;;;;;0.30;0.30;;;;;;;;;;5025319;28;20029;-77
2024/03/28 02:40:55;;;;;;;0.30;0.30;;;;;;;;;;5022332;28;20073;-78
2024/03/28 02:43:20;;;;;;;0.30;0.30;;;;;;;;;;5021807;28;20049;-77
2024/03/28 02:45:46;;;;;;;0.73;0.73;;;;;;;;;;5006586;28;20547;-78
2024/03/28 02:48:11;;;;;;;3.03;1.85;;;;;;;;;;5022982;28;20098;-77
2024/03/28 02:50:36;;;;;;;0.63;0.63;;;;;;;;;;5025474;28;20037;-79
2024/03/28 02:53:02;;;;;;;0.32;0.32;;;;;;;;;;5024754;28;20170;-78
2024/03/28 02:55:27;;;;;;;4.75;4.32;;;;;;;;;;5023479;28;20053;-77
2024/03/28 02:57:52;;;;;;;0.40;0.40;;;;;;;;;;5023406;28;20045;-78
2024/03/28 03:00:18;;;;;;;0.35;0.35;;;;;;;;;;5023478;28;20033;-78
2024/03/28 03:02:43;;;;;;;0.30;0.30;;;;;;;;;;5019702;28;20370;-77
2024/03/28 03:05:10;;;;;;;0.30;0.30;;;;;;;;;;5022664;28;20033;-77
2024/03/28 03:07:35;;;;;;;0.50;0.50;;;;;;;;;;5023417;28;20175;-78
2024/03/28 03:10:01;;;;;;;0.40;0.40;;;;;;;;;;5022237;28;20108;-77
2024/03/28 03:12:27;;;;;;;0.32;0.32;;;;;;;;;;5020830;28;20041;-77
2024/03/28 03:14:54;;;;;;;0.60;0.60;;;;;;;;;;5019224;28;20570;-76
2024/03/28 03:17:19;;;;;;;0.85;0.85;;;;;;;;;;5020370;28;20046;-77
2024/03/28 03:19:45;;;;;;;0.65;0.65;;;;;;;;;;5005802;28;20041;-77
2024/03/28 03:22:11;;;;;;;0.30;0.30;;;;;;;;;;5020781;28;20124;-77
2024/03/28 03:24:38;;;;;;;0.40;0.40;;;;;;;;;;5017008;28;20042;-77
2024/03/28 03:27:04;;;;;;;0.20;0.20;;;;;;;;;;5023436;28;20505;-78
2024/03/28 03:34:58;;;;;;;0.30;0.30;;;;;;;;;;5019385;28;20814;-80
2024/03/28 03:37:27;;;;;;;0.45;0.45;;;;;;;;;;5022584;28;20053;-76
2024/03/28 03:39:53;;;;;;;0.28;0.28;;;;;;;;;;5018420;28;20048;-78
2024/03/28 03:42:19;;;;;;;0.30;0.30;;;;;;;;;;5020182;28;20052;-78
2024/03/28 03:44:44;;;;;;;0.40;0.40;;;;;;;;;;5019295;28;20021;-76
2024/03/28 03:47:10;;;;;;;0.20;0.20;;;;;;;;;;5024902;28;20025;-76
2024/03/28 03:49:35;;;;;;;0.30;0.30;;;;;;;;;;5021322;28;20053;-78
2024/03/28 03:52:01;;;;;;;1.13;0.70;;;;;;;;;;5021080;28;20534;-77
2024/03/28 03:54:26;;;;;;;0.28;0.28;;;;;;;;;;5023504;28;20765;-78
2024/03/28 03:56:51;;;;;;;0.30;0.30;;;;;;;;;;5003560;28;20053;-77
2024/03/28 03:59:17;;;;;;;0.85;0.82;;;;;;;;;;5024647;28;20017;-77
2024/03/28 04:01:42;;;;;;;0.75;0.75;;;;;;;;;;5024128;28;20046;-78
2024/03/28 04:04:08;;;;;;;2.70;2.42;;;;;;;;;;5022922;28;20120;-78
2024/03/28 04:06:33;;;;;;;0.30;0.30;;;;;;;;;;5026295;28;20042;-76
2024/03/28 04:08:59;;;;;;;0.50;0.50;;;;;;;;;;5023749;28;21750;-76
2024/03/28 04:11:24;;;;;;;0.30;0.30;;;;;;;;;;5010559;28;20394;-76
2024/03/28 04:13:50;;;;;;;0.25;0.25;;;;;;;;;;5026964;28;20165;-75
2024/03/28 04:16:15;;;;;;;0.40;0.40;;;;;;;;;;5027222;28;20037;-77
2024/03/28 04:18:40;;;;;;;0.30;0.30;;;;;;;;;;5027106;28;20132;-77
2024/03/28 04:21:06;;;;;;;0.30;0.30;;;;;;;;;;5026196;28;20131;-77
2024/03/28 04:23:31;;;;;;;0.40;0.40;;;;;;;;;;5016827;28;20058;-77
2024/03/28 04:25:57;;;;;;;2.58;1.85;;;;;;;;;;5025654;28;20103;-78
2024/03/28 04:28:23;;;;;;;0.30;0.30;;;;;;;;;;5023352;28;20037;-78
2024/03/28 04:30:49;;;;;;;3.42;2.65;;;;;;;;;;5024452;28;20392;-77
2024/03/28 04:33:14;;;;;;;0.30;0.30;;;;;;;;;;5024140;28;20556;-77
2024/03/28 04:35:41;;;;;;;1.88;1.77;;;;;;;;;;5025639;28;20033;-77
2024/03/28 04:38:06;;;;;;;0.50;0.50;;;;;;;;;;5027788;28;20037;-76
2024/03/28 04:40:31;;;;;;;1.25;1.25;;;;;;;;;;5026808;28;20527;-77
2024/03/28 04:42:57;;;;;;;2.60;2.50;;;;;;;;;;5026187;28;20033;-77
2024/03/28 04:45:22;;;;;;;0.30;0.30;;;;;;;;;;5002428;28;20145;-77
2024/03/28 04:47:48;;;;;;;12.85;11.50;;;;;;;;;;5023232;28;20026;-78
2024/03/28 04:50:15;;;;;;;4.97;4.03;;;;;;;;;;5024471;28;20037;-76
2024/03/28 04:52:40;;;;;;;0.45;0.40;;;;;;;;;;5023371;28;20033;-77
2024/03/28 04:55:06;;;;;;;1.55;1.45;;;;;;;;;;5006108;28;20465;-77
2024/03/28 04:57:31;;;;;;;0.40;0.40;;;;;;;;;;5025565;28;20084;-78
2024/03/28 04:59:57;;;;;;;0.30;0.30;;;;;;;;;;5024513;28;20056;-77
2024/03/28 05:02:22;;;;;;;0.65;0.65;;;;;;;;;;5024590;28;20612;-77
2024/03/28 05:04:48;;;;;;;0.57;0.50;;;;;;;;;;5031974;28;20044;-77
2024/03/28 05:07:13;;;;;;;1.25;1.20;;;;;;;;;;5024629;28;20045;-77
2024/03/28 05:09:39;;;;;;;0.20;0.20;;;;;;;;;;5024416;28;20049;-76
2024/03/28 05:12:04;;;;;;;0.40;0.40;;;;;;;;;;5025457;28;20135;-77
2024/03/28 05:14:30;;;;;;;0.77;0.77;;;;;;;;;;5022489;28;20127;-78
2024/03/28 05:16:55;;;;;;;0.30;0.30;;;;;;;;;;5023989;28;20565;-77
2024/03/28 05:19:21;;;;;;;1.48;1.38;;;;;;;;;;5025801;28;20061;-77
2024/03/28 05:21:46;;;;;;;0.85;0.73;;;;;;;;;;5025451;28;20041;-77
2024/03/28 05:24:12;;;;;;;0.28;0.28;;;;;;;;;;5024302;28;20611;-75
2024/03/28 05:26:37;;;;;;;0.30;0.30;;;;;;;;;;5027512;28;20104;-78
2024/03/28 05:29:03;;;;;;;0.20;0.20;;;;;;;;;;5026024;28;20064;-77
2024/03/28 05:31:31;;;;;;;0.35;0.35;;;;;;;;;;5022736;28;20037;-78
2024/03/28 05:33:56;;;;;;;0.20;0.20;;;;;;;;;;5024847;28;20091;-78
2024/03/28 05:36:24;;;;;;;0.45;0.45;;;;;;;;;;5023400;28;20053;-81
2024/03/28 05:38:49;;;;;;;0.68;0.68;;;;;;;;;;5009786;28;20025;-76
2024/03/28 05:41:15;;;;;;;5.25;4.88;;;;;;;;;;5029075;28;20022;-75
2024/03/28 05:43:40;;;;;;;1.60;1.50;;;;;;;;;;5016043;28;20536;-76
2024/03/28 05:46:05;;;;;;;0.50;0.50;;;;;;;;;;5002757;28;20393;-75
2024/03/28 05:48:31;;;;;;;2.83;2.63;;;;;;;;;;5020647;28;20188;-78
2024/03/28 05:50:58;;;;;;;0.38;0.38;;;;;;;;;;5023898;28;20049;-77
2024/03/28 05:53:23;;;;;;;0.55;0.55;;;;;;;;;;5026155;28;20024;-77
2024/03/28 05:55:48;;;;;;;2.70;2.60;;;;;;;;;;5026264;28;20041;-76
2024/03/28 05:58:14;;;;;;;0.70;0.70;;;;;;;;;;5023323;28;20079;-76
2024/03/28 06:00:39;;;;;;;1.30;1.30;;;;;;;;;;5019431;28;20041;-78
2024/03/28 06:03:04;;;;;;;1.60;1.50;;;;;;;;;;5002890;28;20073;-79
2024/03/28 06:05:30;;;;;;;0.35;0.35;;;;;;;;;;5005898;28;20647;-78
2024/03/28 06:07:55;;;;;;;0.65;0.65;;;;;;;;;;5013060;28;20048;-79
2024/03/28 06:10:21;;;;;;;1.65;1.55;;;;;;;;;;5025429;28;20065;-78
2024/03/28 06:12:46;;;;;;;0.80;0.75;;;;;;;;;;5025685;28;20026;-77
2024/03/28 06:15:12;;;;;;;1.77;1.50;;;;;;;;;;5025114;28;20099;-78
2024/03/28 06:17:37;;;;;;;0.45;0.45;;;;;;;;;;5007319;28;20033;-75
2024/03/28 06:20:03;;;;;;;11.85;9.07;;;;;;;;;;5026791;28;20033;-76
2024/03/28 06:22:28;;;;;;;0.30;0.30;;;;;;;;;;5024492;28;20493;-80
2024/03/28 06:24:54;;;;;;;3.42;1.00;;;;;;;;;;5007653;28;20113;-78
2024/03/28 06:27:20;;;;;;;6.32;5.88;;;;;;;;;;5026978;28;20090;-83
2024/03/28 06:29:52;;;;;;;0.30;0.30;;;;;;;;;;5040513;28;20067;-76
2024/03/28 06:32:24;;;;;;;2.08;1.98;;;;;;;;;;5020391;28;20104;-78
2024/03/28 06:34:57;;;;;;;0.30;0.30;;;;;;;;;;5026336;28;20040;-81
2024/03/28 06:37:23;;;;;;;0.30;0.30;;;;;;;;;;5024076;28;20061;-82
2024/03/28 06:39:49;;;;;;;0.63;0.63;;;;;;;;;;5023638;28;20038;-83
2024/03/28 06:42:14;;;;;;;0.30;0.30;;;;;;;;;;5024032;28;20063;-80
2024/03/28 06:44:47;;;;;;;0.20;0.20;;;;;;;;;;5022860;28;20492;-82
2024/03/28 06:47:13;;;;;;;25.45;2.72;;;;;;;;;;5041089;28;20037;-80
2024/03/28 06:49:39;;;;;;;0.80;0.65;;;;;;;;;;5022955;28;20067;-80
2024/03/28 06:52:04;;;;;;;0.55;0.55;;;;;;;;;;5025295;28;20041;-77
2024/03/28 06:54:30;;;;;;;0.30;0.30;;;;;;;;;;5025920;28;20042;-80
2024/03/28 06:56:56;;;;;;;0.95;0.95;;;;;;;;;;5025414;28;20127;-79
2024/03/28 06:59:22;;;;;;;4.60;4.00;;;;;;;;;;5025521;28;20021;-79
2024/03/28 07:01:49;;;;;;;1.48;1.38;;;;;;;;;;5024926;28;20690;-80
2024/03/28 07:04:15;;;;;;;6.43;3.42;;;;;;;;;;5026164;28;20049;-80
2024/03/28 07:06:40;;;;;;;0.20;0.20;;;;;;;;;;5019118;28;20512;-81
2024/03/28 07:09:07;;;;;;;0.20;0.20;;;;;;;;;;5006011;28;20049;-88
2024/03/28 07:11:33;;;;;;;0.30;0.30;;;;;;;;;;5009747;28;20467;-77
2024/03/28 07:14:00;;;;;;;0.45;0.45;;;;;;;;;;5025495;28;20516;-80
2024/03/28 07:16:25;;;;;;;3.92;3.70;;;;;;;;;;5024097;28;20121;-79
2024/03/28 07:18:52;;;;;;;0.20;0.20;;;;;;;;;;5024432;28;20132;-80
2024/03/28 07:21:17;;;;;;;1.30;1.27;;;;;;;;;;5028520;28;20034;-79
2024/03/28 07:23:43;;;;;;;4.10;1.25;;;;;;;;;;5024468;28;20067;-82
2024/03/28 07:26:08;;;;;;;2.05;1.95;;;;;;;;;;5023839;28;20499;-80
2024/03/28 07:28:33;;;;;;;0.40;0.40;;;;;;;;;;5023496;28;20049;-81
2024/03/28 07:31:00;;;;;;;4.80;4.32;;;;;;;;;;5022181;28;20084;-81
2024/03/28 07:33:26;;;;;;;0.38;0.38;;;;;;;;;;5020328;28;20378;-81
2024/03/28 07:35:53;;;;;;;9.07;8.60;;;;;;;;;;5005263;28;20029;-81
2024/03/28 07:38:18;;;;;;;2.70;2.28;;;;;;;;;;5024911;28;20467;-79
2024/03/28 07:40:47;;;;;;;0.40;0.40;;;;;;;;;;5023049;28;20113;-79
2024/03/28 07:43:13;;;;;;;0.28;0.28;;;;;;;;;;5024550;28;20116;-80
2024/03/28 07:45:39;;;;;;;4.38;2.85;;;;;;;;;;5024813;28;20545;-79
2024/03/28 07:48:04;;;;;;;0.30;0.30;;;;;;;;;;5024672;28;20535;-80
2024/03/28 07:50:29;;;;;;;4.05;2.78;;;;;;;;;;5006858;28;20049;-81
2024/03/28 07:52:55;;;;;;;1.60;1.48;;;;;;;;;;5023477;28;20042;-81
2024/03/28 07:55:20;;;;;;;1.08;1.05;;;;;;;;;;5002467;28;20037;-81
2024/03/28 07:57:47;;;;;;;2.85;2.55;;;;;;;;;;5023494;28;20053;-81
2024/03/28 08:00:12;;;;;;;0.50;0.50;;;;;;;;;;5007438;28;20045;-79
2024/03/28 08:02:38;;;;;;;5.47;2.75;;;;;;;;;;5025176;28;20049;-79
2024/03/28 08:05:05;;;;;;;5.80;4.18;;;;;;;;;;5023172;28;20045;-80
2024/03/28 08:07:30;;;;;;;0.20;0.20;;;;;;;;;;5023852;28;20141;-80
2024/03/28 08:09:56;;;;;;;3.45;2.35;;;;;;;;;;5024405;28;20124;-78
2024/03/28 08:12:23;;;;;;;0.20;0.20;;;;;;;;;;5025163;28;20403;-80
2024/03/28 08:14:48;;;;;;;7.95;3.30;;;;;;;;;;5005871;28;20037;-80
2024/03/28 08:17:14;;;;;;;1.27;1.13;;;;;;;;;;5024525;28;20048;-80
2024/03/28 08:19:39;;;;;;;3.45;2.95;;;;;;;;;;5024414;28;20525;-79
2024/03/28 08:22:08;;;;;;;2.47;1.98;;;;;;;;;;5022109;28;20133;-80
2024/03/28 08:24:33;;;;;;;2.92;1.77;;;;;;;;;;5024832;28;20037;-80
2024/03/28 08:26:59;;;;;;;3.72;2.28;;;;;;;;;;5025101;28;20756;-80
2024/03/28 08:29:25;;;;;;;3.40;2.00;;;;;;;;;;5025470;28;20083;-81
2024/03/28 08:31:50;;;;;;;2.22;2.03;;;;;;;;;;5023808;28;20033;-79
2024/03/28 08:34:16;;;;;;;1.60;1.50;;;;;;;;;;5010185;28;20045;-79
2024/03/28 08:36:41;;;;;;;3.22;2.70;;;;;;;;;;5026819;28;20501;-80
2024/03/28 08:39:07;;;;;;;16.88;2.83;;;;;;;;;;5009286;28;20825;-81
2024/03/28 08:41:32;;;;;;;3.05;2.75;;;;;;;;;;5025460;28;20021;-80
2024/03/28 08:43:59;;;;;;;1.17;1.08;;;;;;;;;;5026598;28;20378;-81
2024/03/28 08:46:24;;;;;;;3.38;2.58;;;;;;;;;;5010189;28;20061;-79
2024/03/28 08:48:50;;;;;;;16.75;3.10;;;;;;;;;;4994243;28;20484;-80
2024/03/28 08:51:21;;;;;;;4.43;3.25;;;;;;;;;;5022869;28;20049;-79
2024/03/28 08:53:46;;;;;;;1.25;1.15;;;;;;;;;;5027846;28;20027;-80
2024/03/28 08:56:13;;;;;;;2.90;2.30;;;;;;;;;;5025307;28;20141;-80
2024/03/28 08:58:39;;;;;;;3.78;3.33;;;;;;;;;;5036577;28;20069;-80
2024/03/28 09:01:04;;;;;;;1.63;1.52;;;;;;;;;;5029022;28;20080;-81
2024/03/28 09:03:30;;;;;;;8.82;3.65;;;;;;;;;;5027906;28;20077;-81
2024/03/28 09:05:56;;;;;;;3.55;3.08;;;;;;;;;;5026304;28;20017;-79
2024/03/28 09:08:21;;;;;;;1.52;1.38;;;;;;;;;;5010938;28;20128;-81
2024/03/28 09:10:53;;;;;;;2.65;1.85;;;;;;;;;;5028816;28;20095;-81
2024/03/28 09:13:19;;;;;;;3.55;2.47;;;;;;;;;;5029791;28;20397;-80
2024/03/28 09:15:44;;;;;;;0.93;0.73;;;;;;;;;;5026921;28;20045;-81
2024/03/28 09:18:10;;;;;;;3.08;2.85;;;;;;;;;;5027145;28;20505;-81
2024/03/28 09:20:36;;;;;;;6.32;2.70;;;;;;;;;;5029746;28;20777;-79
2024/03/28 09:23:02;;;;;;;1.60;1.25;;;;;;;;;;5031877;28;20121;-80
2024/03/28 09:25:27;;;;;;;1.20;0.93;;;;;;;;;;5039635;28;20061;-78
2024/03/28 09:27:52;;;;;;;1.48;1.33;;;;;;;;;;5038289;28;20620;-80
2024/03/28 09:30:18;;;;;;;1.75;1.55;;;;;;;;;;5037740;28;20030;-79
2024/03/28 09:32:45;;;;;;;2.30;1.70;;;;;;;;;;5030193;28;20013;-81
2024/03/28 09:35:11;;;;;;;2.60;1.65;;;;;;;;;;5030101;28;20017;-80
2024/03/28 09:37:36;;;;;;;2.35;2.15;;;;;;;;;;5031659;28;20064;-81
2024/03/28 09:40:01;;;;;;;2.83;2.10;;;;;;;;;;5029161;28;20560;-80
2024/03/28 09:42:27;;;;;;;3.10;2.67;;;;;;;;;;5025200;28;20039;-80
2024/03/28 09:44:53;;;;;;;2.22;2.03;;;;;;;;;;5007876;28;20033;-79
2024/03/28 09:47:19;;;;;;;1.50;1.40;;;;;;;;;;5011242;28;20474;-80
2024/03/28 09:49:45;;;;;;;1.38;1.27;;;;;;;;;;5025111;28;20069;-81
2024/03/28 09:52:12;;;;;;;5.65;1.50;;;;;;;;;;5026141;28;20146;-80
2024/03/28 09:54:40;;;;;;;1.75;1.30;;;;;;;;;;5026352;28;20038;-80
2024/03/28 09:57:05;;;;;;;3.75;2.67;;;;;;;;;;5008516;28;20412;-80
2024/03/28 09:59:32;;;;;;;2.85;2.40;;;;;;;;;;5027475;28;20100;-80
2024/03/28 10:02:00;;;;;;;1.35;1.25;;;;;;;;;;5024100;28;20145;-79
2024/03/28 10:04:28;;;;;;;5.28;4.30;;;;;;;;;;5025491;28;20046;-78
2024/03/28 10:06:54;;;;;;;1.85;0.98;;;;;;;;;;5025539;28;20038;-80
2024/03/28 10:09:22;;;;;;;7.82;1.83;;;;;;;;;;5025874;28;20099;-81
2024/03/28 10:11:48;;;;;;;4.57;1.75;;;;;;;;;;5026129;28;20025;-80
2024/03/28 10:14:18;;;;;;;3.30;1.20;;;;;;;;;;5024769;28;20021;-81
2024/03/28 10:16:48;;;;;;;3.22;1.95;;;;;;;;;;5025830;28;20595;-79
2024/03/28 10:19:14;;;;;;;3.35;2.92;;;;;;;;;;5025164;28;20123;-81
2024/03/28 10:21:39;;;;;;;1.48;1.38;;;;;;;;;;5024869;28;20037;-80
2024/03/28 10:24:06;;;;;;;3.90;3.60;;;;;;;;;;5025497;28;20123;-80
2024/03/28 10:26:33;;;;;;;1.20;1.10;;;;;;;;;;5025383;28;20021;-82
2024/03/28 10:28:59;;;;;;;1.70;1.60;;;;;;;;;;5025641;28;20052;-80
2024/03/28 10:31:26;;;;;;;10.38;3.13;;;;;;;;;;5026296;28;20033;-78
2024/03/28 10:33:52;;;;;;;2.65;0.65;;;;;;;;;;5023788;28;20068;-80
2024/03/28 10:36:24;;;;;;;2.47;2.25;;;;;;;;;;5025251;28;20042;-80
2024/03/28 10:39:00;;;;;;;5.25;1.55;;;;;;;;;;5025233;28;20041;-81
2024/03/28 10:41:28;;;;;;;5.68;2.58;;;;;;;;;;5024631;28;20040;-80
2024/03/28 10:43:53;;;;;;;3.92;1.92;;;;;;;;;;5024807;28;20030;-82
2024/03/28 10:46:20;;;;;;;2.28;1.50;;;;;;;;;;5026258;28;20056;-80
2024/03/28 10:48:45;;;;;;;1.80;1.67;;;;;;;;;;5023931;28;20103;-81
2024/03/28 10:51:17;;;;;;;4.63;1.90;;;;;;;;;;5023185;28;20477;-80
2024/03/28 10:53:45;;;;;;;1.30;0.90;;;;;;;;;;5005725;28;20029;-82
2024/03/28 10:56:14;;;;;;;1.83;1.35;;;;;;;;;;5024880;28;20025;-80
2024/03/28 10:58:39;;;;;;;12.50;3.22;;;;;;;;;;5025531;28;20121;-80
2024/03/28 11:01:08;;;;;;;1.63;1.25;;;;;;;;;;5022042;28;20052;-81
2024/03/28 11:03:34;;;;;;;0.32;0.30;;;;;;;;;;5023080;28;20481;-80
2024/03/28 11:05:59;;;;;;;1.17;0.88;;;;;;;;;;5023863;28;20123;-81
2024/03/28 11:08:28;;;;;;;2.95;1.00;;;;;;;;;;5024987;28;20025;-80
2024/03/28 11:10:59;;;;;;;1.40;1.30;;;;;;;;;;5024948;28;20095;-80
2024/03/28 11:13:24;;;;;;;0.20;0.20;;;;;;;;;;5025293;28;20045;-81
2024/03/28 11:16:06;;;;;;;1.27;1.17;;;;;;;;;;5024349;28;20053;-81
2024/03/28 11:18:35;;;;;;;6.60;3.40;;;;;;;;;;5024788;28;20045;-81
2024/03/28 11:21:01;;;;;;;1.30;0.93;;;;;;;;;;5024378;28;20072;-80
2024/03/28 11:23:27;;;;;;;1.25;0.85;;;;;;;;;;5021289;28;20025;-80
2024/03/28 11:26:02;;;;;;;0.40;0.38;;;;;;;;;;5024211;28;20034;-81
2024/03/28 11:28:31;;;;;;;2.55;2.22;;;;;;;;;;5024676;28;20053;-81
2024/03/28 11:30:57;;;;;;;1.75;1.65;;;;;;;;;;5025966;28;20033;-81
2024/03/28 11:33:33;;;;;;;0.73;0.40;;;;;;;;;;5026100;28;20045;-81
2024/03/28 11:35:59;;;;;;;25.23;1.63;;;;;;;;;;5023089;28;20049;-82
2024/03/28 11:38:24;;;;;;;20.83;1.67;;;;;;;;;;5025417;28;20076;-81
2024/03/28 11:40:51;;;;;;;0.20;0.20;;;;;;;;;;5023237;28;20041;-81
2024/03/28 11:43:16;;;;;;;0.52;0.52;;;;;;;;;;5007161;28;20042;-82
2024/03/28 11:45:53;;;;;;;0.20;0.20;;;;;;;;;;5024207;28;20049;-82
2024/03/28 11:48:20;;;;;;;0.68;0.63;;;;;;;;;;5024628;28;20087;-80
2024/03/28 11:50:46;;;;;;;6.63;1.13;;;;;;;;;;5022914;28;20017;-80
2024/03/28 11:53:11;;;;;;;3.20;2.13;;;;;;;;;;5025121;28;20382;-82
2024/03/28 11:55:40;;;;;;;8.48;2.85;;;;;;;;;;5029594;28;20048;-81
2024/03/28 11:58:14;;;;;;;0.90;0.82;;;;;;;;;;5004779;28;20050;-81
2024/03/28 12:00:40;;;;;;;0.70;0.60;;;;;;;;;;5039818;28;20132;-81
2024/03/28 12:03:05;;;;;;;0.85;0.85;;;;;;;;;;5022834;28;20573;-80
2024/03/28 12:05:32;;;;;;;0.20;0.20;;;;;;;;;;5021985;28;20672;-80
2024/03/28 12:07:58;;;;;;;0.73;0.60;;;;;;;;;;5025381;28;20057;-79
2024/03/28 12:10:23;;;;;;;0.90;0.65;;;;;;;;;;5009736;28;20041;-79
2024/03/28 12:12:48;;;;;;;3.85;1.95;;;;;;;;;;5028347;28;20034;-80
2024/03/28 12:15:14;;;;;;;0.73;0.73;;;;;;;;;;5028112;28;20029;-78
2024/03/28 12:17:40;;;;;;;0.38;0.38;;;;;;;;;;5028258;28;20847;-83
2024/03/28 12:20:08;;;;;;;2.10;1.73;;;;;;;;;;5025691;28;20121;-79
2024/03/28 12:22:34;;;;;;;1.73;1.60;;;;;;;;;;5007097;28;20080;-80
2024/03/28 12:25:00;;;;;;;1.23;1.13;;;;;;;;;;5028555;28;20544;-80
2024/03/28 12:27:27;;;;;;;0.20;0.20;;;;;;;;;;5014458;28;20053;-79
2024/03/28 12:29:52;;;;;;;1.80;1.52;;;;;;;;;;5028248;28;20026;-80
2024/03/28 12:32:19;;;;;;;0.30;0.30;;;;;;;;;;5028241;28;20030;-80
2024/03/28 12:34:51;;;;;;;1.17;0.90;;;;;;;;;;5025549;28;20152;-80
2024/03/28 12:37:16;;;;;;;0.50;0.45;;;;;;;;;;5027941;28;20371;-80
2024/03/28 12:39:42;;;;;;;0.20;0.20;;;;;;;;;;5026319;28;20041;-81
2024/03/28 12:42:07;;;;;;;0.82;0.73;;;;;;;;;;5027242;28;20045;-80
2024/03/28 12:44:33;;;;;;;0.20;0.20;;;;;;;;;;5028482;28;20037;-79
2024/03/28 12:46:58;;;;;;;1.02;0.77;;;;;;;;;;5027823;28;20064;-81
2024/03/28 12:49:23;;;;;;;0.85;0.65;;;;;;;;;;5027509;28;20105;-80
2024/03/28 12:51:49;;;;;;;1.65;0.77;;;;;;;;;;5025257;28;20103;-80
2024/03/28 12:54:15;;;;;;;1.65;1.35;;;;;;;;;;5027099;28;20562;-79
2024/03/28 12:56:41;;;;;;;1.33;1.25;;;;;;;;;;5026192;28;20033;-79
2024/03/28 12:59:07;;;;;;;0.43;0.43;;;;;;;;;;5009518;28;20036;-80
2024/03/28 13:01:32;;;;;;;2.30;1.75;;;;;;;;;;5027099;28;20033;-80
2024/03/28 13:03:57;;;;;;;11.60;1.95;;;;;;;;;;5026954;28;20394;-81
2024/03/28 13:06:23;;;;;;;3.65;2.08;;;;;;;;;;5028332;28;20040;-79
2024/03/28 13:08:48;;;;;;;2.00;1.33;;;;;;;;;;5009438;28;20462;-80
2024/03/28 13:11:14;;;;;;;1.35;0.77;;;;;;;;;;5026470;28;20025;-80
2024/03/28 13:13:41;;;;;;;1.73;1.48;;;;;;;;;;5026180;28;20037;-80
2024/03/28 13:16:06;;;;;;;0.38;0.38;;;;;;;;;;5009560;28;20111;-81
2024/03/28 13:18:32;;;;;;;0.65;0.65;;;;;;;;;;5023648;28;20049;-80
2024/03/28 13:21:00;;;;;;;1.45;1.17;;;;;;;;;;5027126;28;20409;-80
2024/03/28 13:23:26;;;;;;;4.32;0.68;;;;;;;;;;5010145;28;20552;-80
2024/03/28 13:25:51;;;;;;;0.95;0.85;;;;;;;;;;5027537;28;20124;-82
2024/03/28 13:28:17;;;;;;;0.38;0.28;;;;;;;;;;5024538;28;20061;-80
2024/03/28 13:30:45;;;;;;;4.30;1.98;;;;;;;;;;5025082;28;20045;-80
2024/03/28 13:33:10;;;;;;;2.60;1.00;;;;;;;;;;5027686;28;20512;-80
2024/03/28 13:35:36;;;;;;;0.30;0.30;;;;;;;;;;5026715;28;20101;-81
2024/03/28 13:38:03;;;;;;;1.08;0.70;;;;;;;;;;5007846;28;20098;-81
2024/03/28 13:40:28;;;;;;;0.88;0.70;;;;;;;;;;5025102;28;20033;-81
2024/03/28 13:42:54;;;;;;;0.63;0.63;;;;;;;;;;5026782;28;20064;-80
2024/03/28 13:45:19;;;;;;;0.10;0.10;;;;;;;;;;5021349;28;20041;-81
2024/03/28 13:47:44;;;;;;;0.32;0.32;;;;;;;;;;5026037;28;20022;-81
2024/03/28 13:50:10;;;;;;;0.68;0.68;;;;;;;;;;5025886;28;20759;-80
2024/03/28 13:52:35;;;;;;;1.85;1.52;;;;;;;;;;5027275;28;20511;-79
2024/03/28 13:55:01;;;;;;;0.20;0.20;;;;;;;;;;5024558;28;20071;-82
2024/03/28 13:57:26;;;;;;;0.40;0.40;;;;;;;;;;5026056;28;20055;-80
2024/03/28 13:59:51;;;;;;;1.35;1.13;;;;;;;;;;5007493;28;20112;-80
2024/03/28 14:02:17;;;;;;;8.70;1.77;;;;;;;;;;5028791;28;20829;-79
2024/03/28 14:04:42;;;;;;;0.52;0.52;;;;;;;;;;5023513;28;20045;-80
2024/03/28 14:07:08;;;;;;;1.95;1.85;;;;;;;;;;5023488;28;20052;-80
2024/03/28 14:09:33;;;;;;;1.38;1.27;;;;;;;;;;5025644;28;20065;-79
2024/03/28 14:11:58;;;;;;;1.45;1.00;;;;;;;;;;5024424;28;20045;-81
2024/03/28 14:14:24;;;;;;;2.28;1.75;;;;;;;;;;5025823;28;20083;-79
2024/03/28 14:16:49;;;;;;;0.17;0.15;;;;;;;;;;5026487;28;20498;-79
2024/03/28 14:19:15;;;;;;;2.53;1.83;;;;;;;;;;5025293;28;20037;-79
2024/03/28 14:21:40;;;;;;;1.60;1.50;;;;;;;;;;5025212;28;20511;-80
2024/03/28 14:24:05;;;;;;;0.50;0.50;;;;;;;;;;5021320;28;20150;-80
2024/03/28 14:26:31;;;;;;;4.50;1.95;;;;;;;;;;5027015;28;20045;-79
2024/03/28 14:28:56;;;;;;;0.63;0.63;;;;;;;;;;5023964;28;20065;-80
2024/03/28 14:31:22;;;;;;;5.68;1.00;;;;;;;;;;5025390;28;20076;-80
2024/03/28 14:33:50;;;;;;;0.20;0.20;;;;;;;;;;5021709;28;20053;-78
2024/03/28 14:36:17;;;;;;;14.07;2.60;;;;;;;;;;5025123;28;20056;-80
2024/03/28 14:38:42;;;;;;;0.82;0.82;;;;;;;;;;5025652;28;20040;-80
2024/03/28 14:41:08;;;;;;;0.40;0.40;;;;;;;;;;5006030;28;20684;-80